Airfield :







YOU CAN JOIN US ON...

 
LOGIN :

Register | Disclaimer

   EN    FR    IT 

 









Legend :    VFR   Marginal VFR   IFR   Intensive IFR   Very Intensive IFR
Visi :
Ceiling :
>= 8 km
>= 3000ft
5 to 8 km
1000 to 3000 ft
1500m to 5 km
500 to 1000 ft
800 to 1500m
200 to 500 ft
< 800m
< 200 ft
Symbols :   Thunderstorms  Fog  Heavy snow  Heavy precipitations  Wind > 20 kt






- Airport Elevation : 199 ft
- IATA code : YRQ


CYRQ - Trois-Rivières

CURRENT METAR :
  • 280600Z AUTO 04006KT 9SM OVC110 01/M02 A2966 RMK SLP048

EXPIRED METARs :
  • 280500Z AUTO 03006KT 9SM BKN086 BKN110 01/M02 A2968 RMK SLP054
  • 280400Z AUTO 04005KT 9SM CLR 00/M02 A2969 RMK SLP057
  • 280300Z AUTO 05006KT 9SM BKN086 01/M02 A2970 RMK SLP063
  • 280200Z AUTO 04006KT 9SM BKN240 02/M02 A2970 RMK SLP063
  • 280100Z AUTO 05005KT 9SM CLR 02/M02 A2972 RMK SLP068

TAF TAF CYRQ
Valid from the 28 at 02:00 until the 28 at 14:00 UTC


280140Z 2802/2814 05006KT P6SM FEW060 FEW210
FM280600 17005KT P6SM BKN040
TEMPO 2806/2809 5SM -SHRA BKN020
PROB30 2807/2809 2SM -SHRA BR BKN008 OVC020
FM280900 19007KT 2SM -SHRA BR OVC008
BECMG 2812/2814 16012G22KT RMK FCST BASED ON AUTO OBS. NXT FCST BY 280800Z
CZUL FIR / North America



MET'MAP, your aeronautical weather chart ! - Copyright ORBIFLY December 2007 - Disclaimer

ORBIFLY MET'MAP TEAM :

Programming & Development : Alexandra Zaïnal
Original concept : Baudouin d'Aumeries
Technical & hardware support : Manuel Goepfert
Assistance : Marc-Olivier Méhu




SOURCES & CREDITS :

   NOAA